createdAt,value
2022-08-19T00:01:53.143Z,73.55
2022-08-19T00:04:25.430Z,72.74
2022-08-19T00:06:55.277Z,73.02
2022-08-19T00:09:25.860Z,72.82
2022-08-19T00:11:57.464Z,73.64
2022-08-19T00:14:31.295Z,73.62
2022-08-19T00:17:00.769Z,72.62
2022-08-19T00:19:30.653Z,73.30
2022-08-19T00:21:59.916Z,72.15
2022-08-19T00:24:29.833Z,72.10
2022-08-19T00:27:04.915Z,73.08
2022-08-19T00:29:52.777Z,73.38
2022-08-19T00:32:23.081Z,73.16
2022-08-19T00:34:54.598Z,72.37
2022-08-19T00:37:24.802Z,72.93
2022-08-19T00:39:54.275Z,74.15
2022-08-19T00:42:24.324Z,73.39
2022-08-19T00:44:54.891Z,73.11
2022-08-19T00:47:24.335Z,74.61
2022-08-19T00:49:58.964Z,74.66
2022-08-19T00:52:31.096Z,74.09
2022-08-19T00:55:01.023Z,74.84
2022-08-19T00:57:35.156Z,74.23
2022-08-19T01:00:11.363Z,73.95
2022-08-19T01:02:41.587Z,73.54
2022-08-19T01:05:13.750Z,73.87
2022-08-19T01:07:44.236Z,74.27
2022-08-19T01:10:17.653Z,74.91
2022-08-19T01:12:48.220Z,74.63
2022-08-19T01:15:24.011Z,74.68
2022-08-19T01:17:54.279Z,75.39
2022-08-19T01:20:25.577Z,73.70
2022-08-19T01:22:58.634Z,74.16
2022-08-19T01:28:06.419Z,73.25
2022-08-19T01:30:44.500Z,72.90
2022-08-19T01:33:21.884Z,74.03
2022-08-19T01:35:52.486Z,73.94
2022-08-19T01:38:29.295Z,73.67
2022-08-19T01:40:59.629Z,73.18
2022-08-19T01:43:31.004Z,74.21
2022-08-19T01:46:00.173Z,74.70
2022-08-19T01:48:30.521Z,74.99
2022-08-19T01:51:00.277Z,75.68
2022-08-19T01:53:33.783Z,75.87
2022-08-19T01:56:04.148Z,76.14
2022-08-19T01:58:37.122Z,76.03
2022-08-19T02:01:07.603Z,75.08
2022-08-19T02:03:37.130Z,74.94
2022-08-19T02:06:07.282Z,74.78
2022-08-19T02:08:40.821Z,75.81
2022-08-19T02:11:10.598Z,75.78
2022-08-19T02:13:39.934Z,75.05
2022-08-19T02:16:09.608Z,72.80
2022-08-19T02:18:39.899Z,75.58
2022-08-19T02:21:09.729Z,76.15
2022-08-19T02:23:41.009Z,75.68
2022-08-19T02:26:10.737Z,75.69
2022-08-19T02:28:40.485Z,75.32
2022-08-19T02:31:13.217Z,75.65
2022-08-19T02:33:42.768Z,75.16
2022-08-19T02:36:15.534Z,74.34
2022-08-19T02:38:47.699Z,74.31
2022-08-19T02:41:26.864Z,74.69
2022-08-19T02:44:18.444Z,75.06
2022-08-19T02:46:52.403Z,74.30
2022-08-19T02:49:22.736Z,75.56
2022-08-19T02:51:52.346Z,75.46
2022-08-19T02:54:23.414Z,74.93
2022-08-19T02:56:52.879Z,75.37
2022-08-19T02:59:22.982Z,75.70
2022-08-19T03:01:52.462Z,76.03
2022-08-19T03:04:22.599Z,75.46
2022-08-19T03:06:52.116Z,76.38
2022-08-19T03:09:23.954Z,75.57
2022-08-19T03:11:53.547Z,75.73
2022-08-19T03:14:23.436Z,75.83
2022-08-19T03:16:54.559Z,75.27
2022-08-19T03:19:24.379Z,76.62
2022-08-19T03:21:54.588Z,78.13
2022-08-19T03:24:25.740Z,78.51
2022-08-19T03:26:58.875Z,78.38
2022-08-19T03:29:30.661Z,78.42
2022-08-19T03:32:02.255Z,78.43
2022-08-19T03:34:36.274Z,78.60
2022-08-19T03:37:08.753Z,80.25
2022-08-19T03:39:46.567Z,78.80
2022-08-19T03:42:47.952Z,77.36
2022-08-19T03:45:09.156Z,77.24
2022-08-19T03:47:39.066Z,79.54
2022-08-19T03:50:10.060Z,78.65
2022-08-19T03:56:27.141Z,86.04
2022-08-19T03:58:57.880Z,85.23
2022-08-19T04:05:14.189Z,82.83
2022-08-19T04:07:43.431Z,84.32
2022-08-19T04:10:13.015Z,83.46
2022-08-19T04:12:47.561Z,82.98
2022-08-19T04:15:18.793Z,83.69
2022-08-19T04:17:48.279Z,84.01
2022-08-19T04:20:17.818Z,85.71
2022-08-19T04:22:47.195Z,85.33
2022-08-19T04:25:16.781Z,86.10
2022-08-19T04:27:47.919Z,83.70
2022-08-19T04:30:18.815Z,82.48
2022-08-19T04:32:48.051Z,82.05
2022-08-19T04:35:20.136Z,79.55
2022-08-19T04:37:51.420Z,80.17
2022-08-19T04:40:38.124Z,78.95
2022-08-19T04:43:09.651Z,78.23
2022-08-19T04:45:43.927Z,77.70
2022-08-19T04:48:26.566Z,76.58
2022-08-19T04:50:59.085Z,77.36
2022-08-19T04:53:38.063Z,78.12
2022-08-19T04:56:10.269Z,77.54
2022-08-19T04:58:43.491Z,77.43
2022-08-19T05:01:15.310Z,76.57
2022-08-19T05:03:46.887Z,76.97
2022-08-19T05:06:18.039Z,76.93
2022-08-19T05:08:48.030Z,75.97
2022-08-19T05:11:26.242Z,75.37
2022-08-19T05:13:59.979Z,73.81
2022-08-19T05:16:30.267Z,73.75
2022-08-19T05:19:16.684Z,73.19
2022-08-19T05:22:03.697Z,72.67
2022-08-19T05:24:35.340Z,74.04
2022-08-19T05:27:05.496Z,75.03
2022-08-19T05:29:37.038Z,76.17
2022-08-19T05:32:11.565Z,76.40
2022-08-19T05:34:40.946Z,76.30
2022-08-19T05:37:11.375Z,76.13
2022-08-19T05:39:41.590Z,78.32
2022-08-19T05:42:12.794Z,78.09
2022-08-19T05:44:46.102Z,79.48
2022-08-19T05:47:17.320Z,76.23
2022-08-19T05:49:46.955Z,76.11
2022-08-19T05:52:18.842Z,80.07
2022-08-19T05:54:52.091Z,81.51
2022-08-19T05:57:21.997Z,79.70
2022-08-19T05:59:58.070Z,77.98
2022-08-19T06:02:28.518Z,78.25
2022-08-19T06:04:57.928Z,80.17
2022-08-19T06:07:27.632Z,77.39
2022-08-19T06:10:01.029Z,76.86
2022-08-19T06:12:35.725Z,76.11
2022-08-19T06:15:10.833Z,75.67
2022-08-19T06:17:40.247Z,75.67
2022-08-19T06:20:13.080Z,74.38
2022-08-19T06:22:43.658Z,73.84
2022-08-19T06:25:14.888Z,70.74
2022-08-19T06:28:11.490Z,70.44
2022-08-19T06:30:35.323Z,67.53
2022-08-19T06:33:05.058Z,67.55
2022-08-19T06:35:35.466Z,66.64
2022-08-19T06:38:20.428Z,63.51
2022-08-19T06:41:02.940Z,65.90
2022-08-19T06:44:13.239Z,64.45
2022-08-19T06:47:23.668Z,67.02
2022-08-19T06:50:02.991Z,67.66
2022-08-19T06:52:34.336Z,65.28
2022-08-19T06:55:09.344Z,65.16
2022-08-19T06:57:38.757Z,64.74
2022-08-19T07:00:13.200Z,65.81
2022-08-19T07:02:49.767Z,68.82
2022-08-19T07:05:25.672Z,67.10
2022-08-19T07:07:58.177Z,65.06
2022-08-19T07:10:34.273Z,66.23
2022-08-19T07:13:04.308Z,67.39
2022-08-19T07:15:33.588Z,69.22
2022-08-19T07:18:04.489Z,70.66
2022-08-19T07:20:33.983Z,71.90
2022-08-19T07:23:07.189Z,71.16
2022-08-19T07:25:38.187Z,72.57
2022-08-19T07:28:22.478Z,71.49
2022-08-19T07:30:56.183Z,70.84
2022-08-19T07:33:28.047Z,71.38
2022-08-19T07:35:57.617Z,73.44
2022-08-19T07:38:27.414Z,74.99
2022-08-19T07:40:56.910Z,80.76
2022-08-19T07:43:33.414Z,82.50
2022-08-19T07:46:04.960Z,83.48
2022-08-19T07:48:36.422Z,86.12
2022-08-19T07:51:09.277Z,87.02
2022-08-19T07:53:39.986Z,88.51
2022-08-19T07:56:10.203Z,91.51
2022-08-19T07:58:41.184Z,92.61
2022-08-19T08:01:13.086Z,89.97
2022-08-19T08:04:01.964Z,95.89
2022-08-19T08:06:51.178Z,94.82
2022-08-19T08:09:23.298Z,91.70
2022-08-19T08:11:55.807Z,93.84
2022-08-19T08:14:29.688Z,96.66
2022-08-19T08:17:10.988Z,96.09
2022-08-19T08:19:42.399Z,98.88
2022-08-19T08:22:35.301Z,99.71
2022-08-19T08:25:07.744Z,100.00
2022-08-19T08:27:40.637Z,100.00
2022-08-19T08:30:10.787Z,100.00
2022-08-19T08:32:41.183Z,100.00
2022-08-19T08:35:14.878Z,100.00
2022-08-19T08:37:44.613Z,100.00
2022-08-19T08:40:23.217Z,94.44
2022-08-19T08:42:57.419Z,95.36
2022-08-19T08:45:27.852Z,99.72
2022-08-19T08:48:06.614Z,100.00
2022-08-19T08:50:54.441Z,100.00
2022-08-19T08:53:29.627Z,100.00
2022-08-19T08:56:03.119Z,100.00
2022-08-19T08:58:45.357Z,100.00
2022-08-19T09:01:16.477Z,100.00
2022-08-19T09:03:47.293Z,100.00
2022-08-19T09:06:25.948Z,100.00
2022-08-19T09:09:04.772Z,100.00
2022-08-19T09:11:58.618Z,100.00
2022-08-19T09:14:50.359Z,100.00
2022-08-19T09:17:29.217Z,100.00
2022-08-19T09:20:02.234Z,99.22
2022-08-19T09:22:32.964Z,100.00
2022-08-19T09:25:03.256Z,100.00
2022-08-19T09:27:41.792Z,100.00
2022-08-19T09:30:17.149Z,100.00
2022-08-19T09:32:46.954Z,100.00
2022-08-19T09:35:24.296Z,100.00
2022-08-19T09:37:57.819Z,98.75
2022-08-19T09:40:32.624Z,100.00
2022-08-19T09:43:09.954Z,100.00
2022-08-19T09:45:42.631Z,96.29
2022-08-19T09:48:12.068Z,90.23
2022-08-19T09:50:51.865Z,93.72
2022-08-19T09:53:25.141Z,98.52
2022-08-19T09:55:57.046Z,97.02
2022-08-19T09:58:28.751Z,98.65
2022-08-19T10:00:59.471Z,99.27
2022-08-19T10:03:29.988Z,96.72
2022-08-19T10:06:01.471Z,96.58
2022-08-19T10:08:34.183Z,94.58
2022-08-19T10:11:27.817Z,90.82
2022-08-19T10:13:53.162Z,94.34
2022-08-19T10:16:30.002Z,94.34
2022-08-19T10:19:00.435Z,93.36
2022-08-19T10:21:35.309Z,95.25
2022-08-19T10:24:09.363Z,95.37
2022-08-19T10:26:45.611Z,98.15
2022-08-19T10:29:31.966Z,100.00
2022-08-19T10:32:03.955Z,100.00
2022-08-19T10:34:34.307Z,100.00
2022-08-19T10:37:04.028Z,100.00
2022-08-19T10:39:44.220Z,100.00
2022-08-19T10:42:14.515Z,97.01
2022-08-19T10:44:44.867Z,99.06
2022-08-19T10:47:17.596Z,95.01
2022-08-19T10:50:12.385Z,93.19
2022-08-19T10:52:50.160Z,90.32
2022-08-19T10:55:42.437Z,91.77
2022-08-19T10:58:17.572Z,88.80
2022-08-19T11:00:55.552Z,92.87
2022-08-19T11:03:25.396Z,92.73
2022-08-19T11:06:01.675Z,93.00
2022-08-19T11:08:31.820Z,97.68
2022-08-19T11:11:04.367Z,94.45
2022-08-19T11:13:36.823Z,93.92
2022-08-19T11:16:09.369Z,90.27
2022-08-19T11:18:40.667Z,93.38
2022-08-19T11:21:14.909Z,87.36
2022-08-19T11:23:46.716Z,85.01
2022-08-19T11:26:18.479Z,81.56
2022-08-19T11:28:48.704Z,82.34
2022-08-19T11:31:21.456Z,85.41
2022-08-19T11:33:54.762Z,86.66
2022-08-19T11:36:24.987Z,85.91
2022-08-19T11:38:54.567Z,82.22
2022-08-19T11:41:26.210Z,79.61
2022-08-19T11:43:56.807Z,80.62
2022-08-19T11:46:28.569Z,81.52
2022-08-19T11:49:04.195Z,78.67
2022-08-19T11:51:34.763Z,76.79
2022-08-19T11:54:06.803Z,73.69
2022-08-19T11:56:38.584Z,72.70
2022-08-19T11:59:14.803Z,69.59
2022-08-19T12:01:44.587Z,75.86
2022-08-19T12:04:14.726Z,71.97
2022-08-19T12:06:44.311Z,72.13
2022-08-19T12:09:15.359Z,69.66
2022-08-19T12:11:46.871Z,70.73
2022-08-19T12:14:17.536Z,66.29
2022-08-19T12:16:51.609Z,64.88
2022-08-19T12:19:22.851Z,62.55
2022-08-19T12:21:56.471Z,64.92
2022-08-19T12:24:26.104Z,65.70
2022-08-19T12:27:00.854Z,66.25
2022-08-19T12:29:33.367Z,64.68
2022-08-19T12:32:04.040Z,60.13
2022-08-19T12:34:35.703Z,58.29
2022-08-19T12:37:06.749Z,62.73
2022-08-19T12:39:42.185Z,60.61
2022-08-19T12:42:14.782Z,59.32
2022-08-19T12:44:45.412Z,59.27
2022-08-19T12:47:16.445Z,59.81
2022-08-19T12:49:54.234Z,54.36
2022-08-19T12:52:26.233Z,51.75
2022-08-19T12:54:57.625Z,46.95
2022-08-19T12:57:34.253Z,46.98
2022-08-19T13:00:09.705Z,48.14
2022-08-19T13:02:40.183Z,48.33
2022-08-19T13:05:12.344Z,45.00
2022-08-19T13:07:45.028Z,45.00
2022-08-19T13:10:17.526Z,45.31
2022-08-19T13:12:49.563Z,45.08
2022-08-19T13:15:23.669Z,47.33
2022-08-19T13:17:56.916Z,49.46
2022-08-19T13:20:27.232Z,47.42
2022-08-19T13:22:58.308Z,47.30
2022-08-19T13:25:27.720Z,47.32
2022-08-19T13:27:58.835Z,49.27
2022-08-19T13:30:45.568Z,49.35
2022-08-19T13:33:17.432Z,48.03
2022-08-19T13:35:50.907Z,49.10
2022-08-19T13:38:22.336Z,48.08
2022-08-19T13:40:53.737Z,46.90
2022-08-19T13:43:27.069Z,46.32
2022-08-19T13:45:57.927Z,47.37
2022-08-19T13:48:28.730Z,45.83
2022-08-19T13:50:58.339Z,42.38
2022-08-19T13:53:31.316Z,42.32
2022-08-19T13:56:00.525Z,44.16
2022-08-19T13:58:32.666Z,42.44
2022-08-19T14:01:02.129Z,42.58
2022-08-19T14:03:31.461Z,43.50
2022-08-19T14:06:01.152Z,41.39
2022-08-19T14:08:33.221Z,40.87
2022-08-19T14:11:06.617Z,39.95
2022-08-19T14:13:37.429Z,40.09
2022-08-19T14:16:10.986Z,39.58
2022-08-19T14:18:42.914Z,38.02
2022-08-19T14:21:18.387Z,39.53
2022-08-19T14:23:47.638Z,38.85
2022-08-19T14:26:21.552Z,39.54
2022-08-19T14:28:55.293Z,41.54
2022-08-19T14:31:26.803Z,40.50
2022-08-19T14:33:59.410Z,40.47
2022-08-19T14:36:28.267Z,40.78
2022-08-19T14:38:58.500Z,40.69
2022-08-19T14:41:28.259Z,39.19
2022-08-19T14:44:00.516Z,38.65
2022-08-19T14:46:31.377Z,38.66
2022-08-19T14:49:00.704Z,39.45
2022-08-19T14:51:29.899Z,39.53
2022-08-19T14:53:59.258Z,40.71
2022-08-19T14:56:31.716Z,41.83
2022-08-19T14:59:02.120Z,41.17
2022-08-19T15:01:31.853Z,40.74
2022-08-19T15:04:02.563Z,41.51
2022-08-19T15:06:32.940Z,42.33
2022-08-19T15:09:04.562Z,40.33
2022-08-19T15:11:34.210Z,43.50
2022-08-19T15:14:07.883Z,41.73
2022-08-19T15:16:40.477Z,41.94
2022-08-19T15:19:09.846Z,46.30
2022-08-19T15:21:38.864Z,45.57
2022-08-19T15:24:08.547Z,42.70
2022-08-19T15:26:38.104Z,45.54
2022-08-19T15:29:08.821Z,44.82
2022-08-19T15:31:41.634Z,44.64
2022-08-19T15:34:12.103Z,43.96
2022-08-19T15:36:41.317Z,46.31
2022-08-19T15:39:11.793Z,44.93
2022-08-19T15:41:41.199Z,45.46
2022-08-19T15:44:18.707Z,46.17
2022-08-19T15:46:50.368Z,47.31
2022-08-19T15:49:22.998Z,49.09
2022-08-19T15:51:57.982Z,50.01
2022-08-19T15:54:27.208Z,50.87
2022-08-19T15:57:15.352Z,50.87
2022-08-19T16:00:04.504Z,48.65
2022-08-19T16:02:53.461Z,51.31
2022-08-19T16:05:44.805Z,49.22
2022-08-19T16:08:15.664Z,49.00
2022-08-19T16:10:45.090Z,49.96
2022-08-19T16:13:14.281Z,51.17
2022-08-19T16:15:45.146Z,50.74
2022-08-19T16:18:14.262Z,49.81
2022-08-19T16:20:44.367Z,50.51
2022-08-19T16:23:13.526Z,52.38
2022-08-19T16:25:42.701Z,52.98
2022-08-19T16:28:13.545Z,53.86
2022-08-19T16:30:48.501Z,53.15
2022-08-19T16:33:22.780Z,51.05
2022-08-19T16:36:00.357Z,52.54
2022-08-19T16:38:37.654Z,53.33
2022-08-19T16:41:18.583Z,54.64
2022-08-19T16:43:49.309Z,55.31
2022-08-19T16:46:20.338Z,54.85
2022-08-19T16:48:52.263Z,54.36
2022-08-19T16:51:22.866Z,52.78
2022-08-19T16:53:53.660Z,55.05
2022-08-19T16:56:25.654Z,56.04
2022-08-19T16:58:54.792Z,56.14
2022-08-19T17:01:26.395Z,57.18
2022-08-19T17:03:56.362Z,57.81
2022-08-19T17:06:28.367Z,62.12
2022-08-19T17:09:00.517Z,60.50
2022-08-19T17:11:35.878Z,66.02
2022-08-19T17:14:07.199Z,73.64
2022-08-19T17:16:39.917Z,80.09
2022-08-19T17:19:10.148Z,81.48
2022-08-19T17:21:40.701Z,81.94
2022-08-19T17:24:10.203Z,83.88
2022-08-19T17:26:39.921Z,83.97
2022-08-19T17:29:09.450Z,83.35
2022-08-19T17:31:40.203Z,84.00
2022-08-19T17:34:09.370Z,87.60
2022-08-19T17:36:38.407Z,86.94
2022-08-19T17:39:07.882Z,86.06
2022-08-19T17:41:37.072Z,86.18
2022-08-19T17:44:06.683Z,83.81
2022-08-19T17:46:35.890Z,85.88
2022-08-19T17:49:09.256Z,86.35
2022-08-19T17:51:52.361Z,90.09
2022-08-19T17:54:21.771Z,89.82
2022-08-19T17:56:51.340Z,90.14
2022-08-19T17:59:20.723Z,90.83
2022-08-19T18:01:57.687Z,92.11
2022-08-19T18:04:31.418Z,93.16
2022-08-19T18:07:04.522Z,95.10
2022-08-19T18:09:49.411Z,95.68
2022-08-19T18:12:23.475Z,95.97
2022-08-19T18:14:55.162Z,90.42
2022-08-19T18:17:29.097Z,91.12
2022-08-19T18:20:00.144Z,92.34
2022-08-19T18:22:33.699Z,93.09
2022-08-19T18:25:05.166Z,91.87
2022-08-19T18:27:47.899Z,90.86
2022-08-19T18:33:28.777Z,92.09
2022-08-19T18:36:10.966Z,91.45
2022-08-19T18:38:57.370Z,92.75
2022-08-19T18:41:44.470Z,93.19
2022-08-19T18:44:30.701Z,91.88
2022-08-19T18:47:17.063Z,93.20
2022-08-19T18:49:46.104Z,93.62
2022-08-19T18:52:17.046Z,94.59
2022-08-19T18:54:48.404Z,94.25
2022-08-19T18:57:19.530Z,94.61
2022-08-19T18:59:48.575Z,95.36
2022-08-19T19:05:08.371Z,95.66
2022-08-19T19:07:39.668Z,92.98
2022-08-19T19:10:12.199Z,94.93
2022-08-19T19:12:45.762Z,92.30
2022-08-19T19:15:14.884Z,94.81
2022-08-19T19:17:45.170Z,96.01
2022-08-19T19:20:14.932Z,97.39
2022-08-19T19:22:45.529Z,95.93
2022-08-19T19:25:14.724Z,96.77
2022-08-19T19:30:33.076Z,100.00
2022-08-19T19:33:02.441Z,100.00
2022-08-19T19:35:32.477Z,100.00
2022-08-19T19:38:03.199Z,100.00
2022-08-19T19:40:32.472Z,100.00
2022-08-19T19:43:04.756Z,100.00
2022-08-19T19:45:34.754Z,100.00
2022-08-19T19:48:03.739Z,100.00
2022-08-19T19:50:32.823Z,100.00
2022-08-19T19:53:03.656Z,100.00
2022-08-19T19:55:32.756Z,100.00
2022-08-19T19:58:01.454Z,100.00
2022-08-19T20:00:30.882Z,100.00
2022-08-19T20:03:01.255Z,100.00
2022-08-19T20:05:30.410Z,100.00
2022-08-19T20:08:16.667Z,100.00
2022-08-19T20:10:49.609Z,100.00
2022-08-19T20:13:18.748Z,100.00
2022-08-19T20:15:47.572Z,100.00
2022-08-19T20:18:16.895Z,100.00
2022-08-19T20:20:46.506Z,100.00
2022-08-19T20:23:15.423Z,100.00
2022-08-19T20:25:44.737Z,100.00
2022-08-19T20:28:15.290Z,100.00
2022-08-19T20:30:46.402Z,100.00
2022-08-19T20:33:16.159Z,100.00
2022-08-19T20:35:46.267Z,100.00
2022-08-19T20:38:15.860Z,100.00
2022-08-19T20:40:44.790Z,100.00
2022-08-19T20:43:15.713Z,100.00
2022-08-19T20:45:44.886Z,100.00
2022-08-19T20:48:13.872Z,100.00
2022-08-19T20:50:42.884Z,100.00
2022-08-19T20:53:13.652Z,100.00
2022-08-19T20:55:46.611Z,100.00
2022-08-19T20:58:19.433Z,100.00
2022-08-19T21:00:50.726Z,100.00
2022-08-19T21:03:22.750Z,100.00
2022-08-19T21:05:51.970Z,100.00
2022-08-19T21:08:21.695Z,100.00
2022-08-19T21:10:53.386Z,100.00
2022-08-19T21:13:24.833Z,100.00
2022-08-19T21:15:54.391Z,100.00
2022-08-19T21:18:27.522Z,100.00
2022-08-19T21:20:57.758Z,100.00
2022-08-19T21:23:31.306Z,100.00
2022-08-19T21:26:02.164Z,100.00
2022-08-19T21:28:50.720Z,100.00
2022-08-19T21:31:19.708Z,100.00
2022-08-19T21:33:48.721Z,100.00
2022-08-19T21:36:17.833Z,100.00
2022-08-19T21:38:46.890Z,100.00
2022-08-19T21:41:15.929Z,100.00
2022-08-19T21:43:44.938Z,100.00
2022-08-19T21:46:16.374Z,100.00
2022-08-19T21:48:46.078Z,100.00
2022-08-19T21:51:15.146Z,100.00
2022-08-19T21:53:45.943Z,100.00
2022-08-19T21:56:14.930Z,100.00
2022-08-19T21:58:44.753Z,100.00
2022-08-19T22:01:15.910Z,100.00
2022-08-19T22:03:45.438Z,100.00
2022-08-19T22:06:14.527Z,100.00
2022-08-19T22:08:44.884Z,100.00
2022-08-19T22:11:13.846Z,100.00
2022-08-19T22:13:42.930Z,100.00
2022-08-19T22:16:14.387Z,100.00
2022-08-19T22:18:45.250Z,100.00
2022-08-19T22:21:15.658Z,100.00
2022-08-19T22:23:52.057Z,100.00
2022-08-19T22:26:21.689Z,100.00
2022-08-19T22:28:50.633Z,100.00
2022-08-19T22:31:20.010Z,100.00
2022-08-19T22:33:52.961Z,100.00
2022-08-19T22:36:22.019Z,100.00
2022-08-19T22:38:51.045Z,100.00
2022-08-19T22:41:20.147Z,100.00
2022-08-19T22:43:51.526Z,100.00
2022-08-19T22:46:20.678Z,100.00
2022-08-19T22:48:56.719Z,100.00
2022-08-19T22:51:48.114Z,100.00
2022-08-19T22:54:20.302Z,100.00
2022-08-19T22:56:51.448Z,100.00
2022-08-19T22:59:20.409Z,100.00
2022-08-19T23:01:49.616Z,100.00
2022-08-19T23:04:20.355Z,100.00
2022-08-19T23:06:52.078Z,100.00
2022-08-19T23:09:23.472Z,100.00
2022-08-19T23:11:52.843Z,100.00
2022-08-19T23:14:21.589Z,100.00
2022-08-19T23:16:51.468Z,100.00
2022-08-19T23:19:23.377Z,100.00
2022-08-19T23:21:52.699Z,100.00
2022-08-19T23:24:21.683Z,100.00
2022-08-19T23:27:08.494Z,100.00
2022-08-19T23:29:55.228Z,100.00
2022-08-19T23:32:25.550Z,100.00
2022-08-19T23:34:58.000Z,100.00
2022-08-19T23:37:28.658Z,100.00
2022-08-19T23:39:57.577Z,100.00
2022-08-19T23:42:26.749Z,100.00
2022-08-19T23:45:03.790Z,100.00
2022-08-19T23:47:34.091Z,100.00
2022-08-19T23:50:07.770Z,100.00
2022-08-19T23:52:46.697Z,100.00
2022-08-19T23:55:21.481Z,100.00
2022-08-19T23:57:51.058Z,100.00
